Time;durP1;ratioP1;P1;durP2;ratioP2;P2;SDS_P1;SDS_P2;PMS_P1;PMS_P2;Temp;Humidity;BMP_temperature;BMP_pressure;BME280_temperature;BME280_humidity;BME280_pressure;Samples;Min_cycle;Max_cycle;Signal;HPM_P1;HPM_P2
2021/07/05 00:01:23;;;;;;;1.52;0.65;;;;;;;;;;5029977;28;20111;-88
2021/07/05 00:03:52;;;;;;;1.23;0.70;;;;;;;;;;5034958;28;20076;-88
2021/07/05 00:06:20;;;;;;;2.15;1.17;;;;;;;;;;5034097;28;20156;-88
2021/07/05 00:08:48;;;;;;;1.85;0.60;;;;;;;;;;5035272;28;20080;-88
2021/07/05 00:11:17;;;;;;;0.90;0.63;;;;;;;;;;5035202;28;20071;-87
2021/07/05 00:13:46;;;;;;;2.30;1.00;;;;;;;;;;5035029;28;20152;-88
2021/07/05 00:16:15;;;;;;;0.98;0.60;;;;;;;;;;5033184;28;20053;-87
2021/07/05 00:18:43;;;;;;;1.17;0.80;;;;;;;;;;5034508;28;20129;-88
2021/07/05 00:21:11;;;;;;;1.90;0.88;;;;;;;;;;5034263;28;20049;-88
2021/07/05 00:23:40;;;;;;;0.73;0.57;;;;;;;;;;5034289;28;20084;-88
2021/07/05 00:26:09;;;;;;;4.65;0.82;;;;;;;;;;5027428;28;20089;-87
2021/07/05 00:28:37;;;;;;;3.92;0.75;;;;;;;;;;5033899;28;20053;-89
2021/07/05 00:31:07;;;;;;;3.17;0.70;;;;;;;;;;5034372;28;20980;-88
2021/07/05 00:33:36;;;;;;;2.28;0.70;;;;;;;;;;5034088;28;20135;-88
2021/07/05 00:36:05;;;;;;;1.25;0.73;;;;;;;;;;5033684;28;20073;-88
2021/07/05 00:38:33;;;;;;;1.67;0.73;;;;;;;;;;5034577;28;20041;-88
2021/07/05 00:41:02;;;;;;;1.00;0.70;;;;;;;;;;5024205;28;20050;-87
2021/07/05 00:43:31;;;;;;;4.43;0.93;;;;;;;;;;5033674;28;20448;-88
2021/07/05 00:45:59;;;;;;;1.42;1.10;;;;;;;;;;5033088;28;20119;-89
2021/07/05 00:48:29;;;;;;;1.15;0.50;;;;;;;;;;5033918;28;20119;-89
2021/07/05 00:50:57;;;;;;;1.77;0.73;;;;;;;;;;5034122;28;20077;-88
2021/07/05 00:53:26;;;;;;;1.50;0.70;;;;;;;;;;5033538;28;20175;-88
2021/07/05 00:55:54;;;;;;;1.80;0.80;;;;;;;;;;5033048;28;20073;-88
2021/07/05 00:58:23;;;;;;;3.15;0.80;;;;;;;;;;5032303;28;20069;-89
2021/07/05 01:00:51;;;;;;;1.65;0.82;;;;;;;;;;5033995;28;20041;-89
2021/07/05 01:03:20;;;;;;;1.75;0.70;;;;;;;;;;5042853;23;20084;-59
2021/07/05 01:05:49;;;;;;;1.45;0.93;;;;;;;;;;5025819;28;20401;-59
2021/07/05 01:08:17;;;;;;;2.83;0.70;;;;;;;;;;5030805;28;20495;-59
2021/07/05 01:10:47;;;;;;;3.28;2.08;;;;;;;;;;5033125;28;20053;-59
2021/07/05 01:13:15;;;;;;;2.55;0.85;;;;;;;;;;5040571;28;20056;-59
2021/07/05 01:15:43;;;;;;;3.88;0.70;;;;;;;;;;5049685;28;20060;-59
2021/07/05 01:18:12;;;;;;;1.63;0.80;;;;;;;;;;5047218;28;20587;-59
2021/07/05 01:20:41;;;;;;;3.65;0.68;;;;;;;;;;5038937;28;20195;-59
2021/07/05 01:23:11;;;;;;;1.30;0.88;;;;;;;;;;5030774;28;20567;-59
2021/07/05 01:25:41;;;;;;;2.25;0.65;;;;;;;;;;5018868;28;20313;-59
2021/07/05 01:28:10;;;;;;;3.58;0.80;;;;;;;;;;5045684;28;20053;-59
2021/07/05 01:30:40;;;;;;;1.13;0.77;;;;;;;;;;5044667;28;20498;-59
2021/07/05 01:33:09;;;;;;;2.95;0.80;;;;;;;;;;5044099;28;20129;-59
2021/07/05 01:35:37;;;;;;;3.22;0.90;;;;;;;;;;5049756;28;20041;-59
2021/07/05 01:38:10;;;;;;;1.27;0.80;;;;;;;;;;5038000;28;20057;-59
2021/07/05 01:40:39;;;;;;;1.42;0.90;;;;;;;;;;5041593;28;20092;-59
2021/07/05 01:43:08;;;;;;;2.00;0.73;;;;;;;;;;5044362;28;20059;-59
2021/07/05 01:45:36;;;;;;;3.95;0.98;;;;;;;;;;5044960;28;20049;-59
2021/07/05 01:48:05;;;;;;;3.35;1.00;;;;;;;;;;5034409;28;20055;-59
2021/07/05 01:50:33;;;;;;;3.03;0.73;;;;;;;;;;5039735;28;20099;-59
2021/07/05 01:53:02;;;;;;;1.17;0.88;;;;;;;;;;5045199;28;20064;-59
2021/07/05 01:55:33;;;;;;;1.63;0.90;;;;;;;;;;5016321;28;20148;-59
2021/07/05 01:58:03;;;;;;;1.35;0.80;;;;;;;;;;5025004;28;20049;-59
2021/07/05 02:00:33;;;;;;;3.05;0.85;;;;;;;;;;5030106;28;20156;-59
2021/07/05 02:03:01;;;;;;;2.05;0.80;;;;;;;;;;5028580;28;20104;-59
2021/07/05 02:05:30;;;;;;;3.15;0.90;;;;;;;;;;5029457;28;20483;-59
2021/07/05 02:07:58;;;;;;;5.07;1.58;;;;;;;;;;5028839;28;20049;-59
2021/07/05 02:10:28;;;;;;;2.60;0.77;;;;;;;;;;5029552;28;20136;-59
2021/07/05 02:12:57;;;;;;;2.78;0.80;;;;;;;;;;5029231;28;20563;-59
2021/07/05 02:15:27;;;;;;;2.28;1.08;;;;;;;;;;5026696;28;20082;-59
2021/07/05 02:17:55;;;;;;;1.77;0.98;;;;;;;;;;5029520;28;20057;-59
2021/07/05 02:20:24;;;;;;;2.33;0.90;;;;;;;;;;5029083;28;20479;-59
2021/07/05 02:22:53;;;;;;;1.52;0.90;;;;;;;;;;5030173;28;20053;-59
2021/07/05 02:25:23;;;;;;;1.52;0.95;;;;;;;;;;5028771;28;20038;-59
2021/07/05 02:27:51;;;;;;;1.77;0.80;;;;;;;;;;5027772;28;20136;-59
2021/07/05 02:30:21;;;;;;;2.20;0.90;;;;;;;;;;5028746;28;20064;-59
2021/07/05 02:32:51;;;;;;;4.20;1.05;;;;;;;;;;5028252;28;20099;-59
2021/07/05 02:35:21;;;;;;;1.58;0.80;;;;;;;;;;5029558;28;20132;-59
2021/07/05 02:37:50;;;;;;;1.42;0.85;;;;;;;;;;5029005;28;20378;-59
2021/07/05 02:40:19;;;;;;;2.95;0.80;;;;;;;;;;5028710;28;20560;-59
2021/07/05 02:42:48;;;;;;;4.18;1.10;;;;;;;;;;5028542;28;20052;-59
2021/07/05 02:45:18;;;;;;;5.32;1.15;;;;;;;;;;5028165;28;20129;-59
2021/07/05 02:47:46;;;;;;;1.75;0.90;;;;;;;;;;5017226;28;20143;-59
2021/07/05 02:50:16;;;;;;;3.85;0.90;;;;;;;;;;5023180;28;20136;-59
2021/07/05 02:52:44;;;;;;;2.53;1.00;;;;;;;;;;5027683;28;20132;-59
2021/07/05 02:55:14;;;;;;;5.03;0.90;;;;;;;;;;5028936;28;20100;-60
2021/07/05 02:57:44;;;;;;;1.88;0.90;;;;;;;;;;5025152;28;20240;-60
2021/07/05 03:00:13;;;;;;;1.75;0.88;;;;;;;;;;5027814;28;20608;-60
2021/07/05 03:02:42;;;;;;;2.47;1.10;;;;;;;;;;5025532;28;20128;-60
2021/07/05 03:05:13;;;;;;;1.63;0.80;;;;;;;;;;5018320;28;20064;-60
2021/07/05 03:07:43;;;;;;;1.77;1.10;;;;;;;;;;5023415;28;20084;-60
2021/07/05 03:10:12;;;;;;;1.20;0.90;;;;;;;;;;5028841;28;20045;-60
2021/07/05 03:12:40;;;;;;;2.55;1.23;;;;;;;;;;5028666;28;20044;-60
2021/07/05 03:15:11;;;;;;;4.32;1.10;;;;;;;;;;5029446;28;20133;-60
2021/07/05 03:17:40;;;;;;;3.03;1.00;;;;;;;;;;5026855;28;20589;-60
2021/07/05 03:20:10;;;;;;;1.42;1.10;;;;;;;;;;5028973;28;20056;-60
2021/07/05 03:22:38;;;;;;;3.97;1.17;;;;;;;;;;5026727;28;20482;-60
2021/07/05 03:25:10;;;;;;;1.65;1.23;;;;;;;;;;5032883;28;20366;-60
2021/07/05 03:27:39;;;;;;;1.33;0.90;;;;;;;;;;5030192;28;20125;-60
2021/07/05 03:30:08;;;;;;;1.90;1.05;;;;;;;;;;5031923;28;20465;-60
2021/07/05 03:32:36;;;;;;;4.10;1.20;;;;;;;;;;5036094;28;20547;-60
2021/07/05 03:35:06;;;;;;;6.75;1.40;;;;;;;;;;5034187;28;20183;-60
2021/07/05 03:37:34;;;;;;;5.13;1.08;;;;;;;;;;5035910;28;20056;-60
2021/07/05 03:40:02;;;;;;;8.90;1.20;;;;;;;;;;5035343;28;20041;-61
2021/07/05 03:42:32;;;;;;;1.67;0.90;;;;;;;;;;5015454;28;20081;-61
2021/07/05 03:45:00;;;;;;;2.60;0.93;;;;;;;;;;5031877;28;20049;-61
2021/07/05 03:47:29;;;;;;;2.13;1.27;;;;;;;;;;5031186;28;20505;-61
2021/07/05 03:49:57;;;;;;;2.58;1.13;;;;;;;;;;5032609;28;20045;-61
2021/07/05 03:52:25;;;;;;;4.38;1.00;;;;;;;;;;5032018;28;20382;-61
2021/07/05 03:54:54;;;;;;;1.95;1.00;;;;;;;;;;5031087;28;20180;-61
2021/07/05 03:57:26;;;;;;;1.67;1.00;;;;;;;;;;5023218;28;20053;-61
2021/07/05 03:59:57;;;;;;;3.80;1.10;;;;;;;;;;5031304;28;20053;-61
2021/07/05 04:02:25;;;;;;;3.25;1.10;;;;;;;;;;5028995;28;20052;-61
2021/07/05 04:04:56;;;;;;;2.55;1.20;;;;;;;;;;5023515;28;20454;-61
2021/07/05 04:07:24;;;;;;;3.42;1.00;;;;;;;;;;5031927;28;20059;-58
2021/07/05 04:09:53;;;;;;;1.15;1.02;;;;;;;;;;5023811;28;20156;-59
2021/07/05 04:12:21;;;;;;;2.17;1.02;;;;;;;;;;5028009;28;20067;-59
2021/07/05 04:14:51;;;;;;;2.15;1.20;;;;;;;;;;5031065;28;20045;-59
2021/07/05 04:17:21;;;;;;;3.88;1.33;;;;;;;;;;5031441;28;20080;-60
2021/07/05 04:19:49;;;;;;;2.90;1.00;;;;;;;;;;5027157;28;20099;-60
2021/07/05 04:22:18;;;;;;;3.92;1.15;;;;;;;;;;5029582;28;20079;-60
2021/07/05 04:24:47;;;;;;;1.77;1.10;;;;;;;;;;5026375;28;20045;-60
2021/07/05 04:27:16;;;;;;;1.85;1.10;;;;;;;;;;5026786;28;20148;-60
2021/07/05 04:29:45;;;;;;;3.88;1.45;;;;;;;;;;5031274;28;20099;-60
2021/07/05 04:32:14;;;;;;;1.70;1.30;;;;;;;;;;5026929;28;20113;-60
2021/07/05 04:34:49;;;;;;;2.05;1.27;;;;;;;;;;5031234;28;20056;-60
2021/07/05 04:37:18;;;;;;;5.50;1.30;;;;;;;;;;5024919;28;20052;-60
2021/07/05 04:39:46;;;;;;;2.25;1.42;;;;;;;;;;5013766;28;20071;-60
2021/07/05 04:42:14;;;;;;;1.95;1.20;;;;;;;;;;5023633;28;20057;-60
2021/07/05 04:44:43;;;;;;;5.15;1.60;;;;;;;;;;5024419;28;20128;-60
2021/07/05 04:47:12;;;;;;;3.75;1.70;;;;;;;;;;5024727;28;20046;-60
2021/07/05 04:49:40;;;;;;;2.05;1.40;;;;;;;;;;5027336;28;20045;-60
2021/07/05 04:52:10;;;;;;;2.80;1.52;;;;;;;;;;5026425;28;20485;-60
2021/07/05 04:54:38;;;;;;;4.50;1.42;;;;;;;;;;5028127;28;20053;-60
2021/07/05 04:57:06;;;;;;;4.10;1.38;;;;;;;;;;5027095;28;20133;-60
2021/07/05 04:59:35;;;;;;;3.33;1.70;;;;;;;;;;5023994;28;20060;-60
2021/07/05 05:02:03;;;;;;;2.65;1.33;;;;;;;;;;5031527;28;20054;-60
2021/07/05 05:04:32;;;;;;;2.95;1.33;;;;;;;;;;5029133;28;20374;-60
2021/07/05 05:07:00;;;;;;;2.70;1.27;;;;;;;;;;5032880;28;20050;-60
2021/07/05 05:09:30;;;;;;;3.80;1.70;;;;;;;;;;5031423;28;20136;-60
2021/07/05 05:11:58;;;;;;;4.90;1.60;;;;;;;;;;5031303;28;20128;-60
2021/07/05 05:14:27;;;;;;;3.08;1.70;;;;;;;;;;5031680;28;20041;-60
2021/07/05 05:16:55;;;;;;;7.00;1.80;;;;;;;;;;5032560;28;20063;-60
2021/07/05 05:19:24;;;;;;;2.55;1.30;;;;;;;;;;5030545;28;20549;-60
2021/07/05 05:21:52;;;;;;;3.03;1.40;;;;;;;;;;5032180;28;20140;-60
2021/07/05 05:24:20;;;;;;;4.68;3.58;;;;;;;;;;5029586;28;20488;-60
2021/07/05 05:26:50;;;;;;;4.00;2.72;;;;;;;;;;5025104;28;20100;-61
2021/07/05 05:29:18;;;;;;;4.13;2.78;;;;;;;;;;5027046;28;20144;-60
2021/07/05 05:31:47;;;;;;;1.95;1.65;;;;;;;;;;5029949;28;20081;-61
2021/07/05 05:34:15;;;;;;;2.97;1.20;;;;;;;;;;5029448;28;20049;-60
2021/07/05 05:36:43;;;;;;;2.28;1.13;;;;;;;;;;5025332;28;20158;-60
2021/07/05 05:39:12;;;;;;;1.98;1.40;;;;;;;;;;5026430;28;20367;-60
2021/07/05 05:41:40;;;;;;;2.25;1.15;;;;;;;;;;5023199;28;20162;-60
2021/07/05 05:44:10;;;;;;;3.30;1.45;;;;;;;;;;5029215;28;20332;-60
2021/07/05 05:46:38;;;;;;;1.85;1.33;;;;;;;;;;5030905;28;20128;-60
2021/07/05 05:49:07;;;;;;;1.90;1.63;;;;;;;;;;5029559;28;20115;-60
2021/07/05 05:51:36;;;;;;;1.60;1.23;;;;;;;;;;5024775;28;20136;-60
2021/07/05 05:54:05;;;;;;;3.08;1.35;;;;;;;;;;5024872;28;20163;-60
2021/07/05 05:56:33;;;;;;;2.40;1.63;;;;;;;;;;5031829;28;20042;-60
2021/07/05 05:59:04;;;;;;;1.63;1.20;;;;;;;;;;5025436;28;20072;-60
2021/07/05 06:01:35;;;;;;;2.97;1.30;;;;;;;;;;5029309;28;20129;-60
2021/07/05 06:04:03;;;;;;;1.88;1.40;;;;;;;;;;5021019;28;20084;-60
2021/07/05 06:06:33;;;;;;;3.78;1.40;;;;;;;;;;5029018;28;20041;-60
2021/07/05 06:09:01;;;;;;;6.60;1.50;;;;;;;;;;5033349;28;20088;-60
2021/07/05 06:11:29;;;;;;;2.38;1.48;;;;;;;;;;5027591;28;20389;-60
2021/07/05 06:13:58;;;;;;;3.28;1.20;;;;;;;;;;5031635;28;20077;-60
2021/07/05 06:16:26;;;;;;;2.00;1.17;;;;;;;;;;5028064;28;20413;-60
2021/07/05 06:18:56;;;;;;;2.25;1.30;;;;;;;;;;5028768;28;20041;-60
2021/07/05 06:21:26;;;;;;;2.22;1.45;;;;;;;;;;5029549;28;20045;-60
2021/07/05 06:23:55;;;;;;;3.88;1.48;;;;;;;;;;5029873;28;20055;-60
2021/07/05 06:26:24;;;;;;;5.55;1.73;;;;;;;;;;5028218;28;20081;-60
2021/07/05 06:28:52;;;;;;;2.22;1.27;;;;;;;;;;5028775;28;20053;-60
2021/07/05 06:31:20;;;;;;;4.13;1.20;;;;;;;;;;5027461;28;20049;-60
2021/07/05 06:33:49;;;;;;;2.13;1.30;;;;;;;;;;5029063;28;20441;-60
2021/07/05 06:36:18;;;;;;;3.63;1.17;;;;;;;;;;5031038;28;20053;-60
2021/07/05 06:38:47;;;;;;;3.65;1.20;;;;;;;;;;5032091;28;20053;-60
2021/07/05 06:41:15;;;;;;;1.35;1.15;;;;;;;;;;5028500;28;20072;-60
2021/07/05 06:43:44;;;;;;;2.47;1.00;;;;;;;;;;5026327;28;20076;-60
2021/07/05 06:46:12;;;;;;;2.58;1.15;;;;;;;;;;5019450;28;20163;-60
2021/07/05 06:48:41;;;;;;;1.67;1.08;;;;;;;;;;5022809;28;20046;-60
2021/07/05 06:51:09;;;;;;;2.25;1.00;;;;;;;;;;5033790;28;20057;-60
2021/07/05 06:53:39;;;;;;;1.77;1.10;;;;;;;;;;5029233;28;20540;-60
2021/07/05 06:56:07;;;;;;;5.55;1.30;;;;;;;;;;5029519;28;20053;-60
2021/07/05 06:58:35;;;;;;;2.85;1.10;;;;;;;;;;5030849;28;20141;-61
2021/07/05 07:01:05;;;;;;;3.97;1.55;;;;;;;;;;5024588;28;20114;-61
2021/07/05 07:03:33;;;;;;;4.72;1.10;;;;;;;;;;5030759;28;20552;-61
2021/07/05 07:06:02;;;;;;;1.83;1.10;;;;;;;;;;5022550;28;20097;-61
2021/07/05 07:08:30;;;;;;;2.17;1.00;;;;;;;;;;5021334;28;20060;-61
2021/07/05 07:11:00;;;;;;;3.20;1.10;;;;;;;;;;5030499;28;20148;-60
2021/07/05 07:13:28;;;;;;;2.40;1.20;;;;;;;;;;5024858;28;20420;-60
2021/07/05 07:16:00;;;;;;;2.33;0.90;;;;;;;;;;5023961;28;20413;-60
2021/07/05 07:18:59;;;;;;;2.08;1.00;;;;;;;;;;5020659;28;20133;-60
2021/07/05 07:21:28;;;;;;;2.13;1.10;;;;;;;;;;5024544;28;20045;-62
2021/07/05 07:23:57;;;;;;;2.05;1.15;;;;;;;;;;5025571;28;20064;-60
2021/07/05 07:26:26;;;;;;;1.50;1.20;;;;;;;;;;5024703;28;20047;-62
2021/07/05 07:28:55;;;;;;;4.15;1.25;;;;;;;;;;5024098;28;20493;-61
2021/07/05 07:31:24;;;;;;;1.23;1.00;;;;;;;;;;5024832;28;20114;-61
2021/07/05 07:33:53;;;;;;;1.92;1.15;;;;;;;;;;5022972;28;20072;-61
2021/07/05 07:36:22;;;;;;;1.30;1.17;;;;;;;;;;5025430;28;20136;-61
2021/07/05 07:38:53;;;;;;;2.10;1.10;;;;;;;;;;5023444;28;20100;-61
2021/07/05 07:41:23;;;;;;;3.92;1.10;;;;;;;;;;5023555;28;20057;-61
2021/07/05 07:43:52;;;;;;;2.28;1.02;;;;;;;;;;5023440;28;20046;-61
2021/07/05 07:46:21;;;;;;;2.67;0.88;;;;;;;;;;5029609;28;20115;-62
2021/07/05 07:48:50;;;;;;;1.40;1.00;;;;;;;;;;5031708;28;20045;-62
2021/07/05 07:51:18;;;;;;;3.10;1.00;;;;;;;;;;5032601;28;20064;-62
2021/07/05 07:53:47;;;;;;;1.90;1.40;;;;;;;;;;5025624;28;20045;-59
2021/07/05 07:56:15;;;;;;;3.83;1.20;;;;;;;;;;5023845;28;20077;-60
2021/07/05 07:58:44;;;;;;;2.72;1.33;;;;;;;;;;5027710;28;20068;-59
2021/07/05 08:01:14;;;;;;;2.03;1.00;;;;;;;;;;5030169;28;20049;-59
2021/07/05 08:03:43;;;;;;;1.90;1.20;;;;;;;;;;5029318;28;20449;-59
2021/07/05 08:06:12;;;;;;;2.95;1.42;;;;;;;;;;5026811;28;20053;-60
2021/07/05 08:08:41;;;;;;;2.50;1.35;;;;;;;;;;5022604;28;20053;-61
2021/07/05 08:11:09;;;;;;;4.95;1.27;;;;;;;;;;5025543;28;20041;-61
2021/07/05 08:13:37;;;;;;;3.22;1.23;;;;;;;;;;5026899;28;20049;-61
2021/07/05 08:16:06;;;;;;;1.98;1.20;;;;;;;;;;5033491;28;20057;-61
2021/07/05 08:18:36;;;;;;;2.00;1.05;;;;;;;;;;5030625;28;20053;-61
2021/07/05 08:21:05;;;;;;;6.75;1.10;;;;;;;;;;5022906;28;20050;-61
2021/07/05 08:23:34;;;;;;;4.15;1.20;;;;;;;;;;5024080;28;20050;-67
2021/07/05 08:26:03;;;;;;;3.17;1.00;;;;;;;;;;5017179;28;20045;-60
2021/07/05 08:28:32;;;;;;;2.00;1.02;;;;;;;;;;5024108;28;20045;-61
2021/07/05 08:31:01;;;;;;;3.42;1.10;;;;;;;;;;5026698;28;20092;-61
2021/07/05 08:33:31;;;;;;;1.92;1.00;;;;;;;;;;5026792;28;20080;-61
2021/07/05 08:36:01;;;;;;;1.20;1.00;;;;;;;;;;5029531;28;20049;-61
2021/07/05 08:38:30;;;;;;;0.98;0.88;;;;;;;;;;5025727;28;20483;-60
2021/07/05 08:40:59;;;;;;;2.15;1.00;;;;;;;;;;5020567;28;20141;-60
2021/07/05 08:43:28;;;;;;;1.00;0.80;;;;;;;;;;5021243;28;20050;-60
2021/07/05 08:46:00;;;;;;;3.33;1.10;;;;;;;;;;5024617;28;20142;-60
2021/07/05 08:48:30;;;;;;;4.63;1.00;;;;;;;;;;5028282;28;20057;-60
2021/07/05 08:51:00;;;;;;;2.65;1.00;;;;;;;;;;5023177;28;20524;-60
2021/07/05 08:53:30;;;;;;;3.35;1.08;;;;;;;;;;5026581;28;20045;-60
2021/07/05 08:55:59;;;;;;;2.88;0.90;;;;;;;;;;5027811;28;20049;-60
2021/07/05 08:58:28;;;;;;;3.03;0.90;;;;;;;;;;5028497;28;20123;-60
2021/07/05 09:00:57;;;;;;;1.45;0.85;;;;;;;;;;5017812;28;20131;-60
2021/07/05 09:03:26;;;;;;;1.27;1.00;;;;;;;;;;5029313;28;20103;-60
2021/07/05 09:06:11;;;;;;;4.30;1.00;;;;;;;;;;5028012;28;20100;-60
2021/07/05 09:08:43;;;;;;;1.48;0.80;;;;;;;;;;5028056;28;20049;-60
2021/07/05 09:11:12;;;;;;;2.22;0.90;;;;;;;;;;5023224;28;20069;-60
2021/07/05 09:13:51;;;;;;;1.92;0.80;;;;;;;;;;5022504;28;20084;-60
2021/07/05 09:16:30;;;;;;;4.53;0.93;;;;;;;;;;5022442;28;20041;-60
2021/07/05 09:18:59;;;;;;;3.00;1.00;;;;;;;;;;5029633;28;20152;-60
2021/07/05 09:21:29;;;;;;;1.52;0.95;;;;;;;;;;5027675;28;20057;-60
2021/07/05 09:24:02;;;;;;;1.85;0.95;;;;;;;;;;5017064;28;20563;-60
2021/07/05 09:26:35;;;;;;;2.53;1.00;;;;;;;;;;5028662;28;20045;-60
2021/07/05 09:29:06;;;;;;;4.82;1.10;;;;;;;;;;5035880;28;20057;-60
2021/07/05 09:31:39;;;;;;;2.40;1.20;;;;;;;;;;5029284;28;20107;-60
2021/07/05 09:34:15;;;;;;;2.90;1.25;;;;;;;;;;5027626;28;20057;-60
2021/07/05 09:36:44;;;;;;;3.92;1.33;;;;;;;;;;4997133;28;20085;-60
2021/07/05 09:39:15;;;;;;;3.30;1.20;;;;;;;;;;4997669;28;20050;-60
2021/07/05 09:41:55;;;;;;;2.28;1.00;;;;;;;;;;5082720;27;20390;-60
2021/07/05 09:44:25;;;;;;;3.47;1.13;;;;;;;;;;5083555;27;20131;-60
2021/07/05 09:46:55;;;;;;;1.92;1.25;;;;;;;;;;5060574;28;20045;-60
2021/07/05 09:49:30;;;;;;;2.80;1.20;;;;;;;;;;5045603;28;20055;-60
2021/07/05 09:52:09;;;;;;;1.75;1.52;;;;;;;;;;5028386;28;20502;-60
2021/07/05 09:54:38;;;;;;;1.92;1.05;;;;;;;;;;5030655;28;20486;-60
2021/07/05 09:59:52;;;;;;;3.53;1.00;;;;;;;;;;5022833;28;20096;-60
2021/07/05 10:02:21;;;;;;;3.08;0.93;;;;;;;;;;5027375;28;20434;-63
2021/07/05 10:04:49;;;;;;;4.03;1.00;;;;;;;;;;5042385;28;20072;-60
2021/07/05 10:07:18;;;;;;;1.20;1.05;;;;;;;;;;5023380;28;20081;-60
2021/07/05 10:09:47;;;;;;;2.15;1.20;;;;;;;;;;5021124;28;20042;-60
2021/07/05 10:12:27;;;;;;;2.65;1.05;;;;;;;;;;5025671;28;20107;-60
2021/07/05 10:14:56;;;;;;;1.30;0.90;;;;;;;;;;5007030;28;20517;-60
2021/07/05 10:17:26;;;;;;;2.75;1.15;;;;;;;;;;5025542;28;20042;-59
2021/07/05 10:19:55;;;;;;;2.05;1.00;;;;;;;;;;5026996;28;20052;-59
2021/07/05 10:22:24;;;;;;;1.73;0.80;;;;;;;;;;5016584;28;20474;-60
2021/07/05 10:24:52;;;;;;;1.30;0.90;;;;;;;;;;5028569;28;20481;-60
2021/07/05 10:27:21;;;;;;;3.92;0.90;;;;;;;;;;5049652;28;20073;-60
2021/07/05 10:29:51;;;;;;;2.50;0.82;;;;;;;;;;5046149;28;20053;-59
2021/07/05 10:32:20;;;;;;;6.07;1.20;;;;;;;;;;5045707;28;20055;-60
2021/07/05 10:34:53;;;;;;;2.05;1.10;;;;;;;;;;5034293;28;20049;-60
2021/07/05 10:37:26;;;;;;;2.88;0.90;;;;;;;;;;5022315;28;20377;-60
2021/07/05 10:39:54;;;;;;;1.50;0.90;;;;;;;;;;5024790;28;20401;-60
2021/07/05 10:42:34;;;;;;;1.50;0.98;;;;;;;;;;5021761;28;20086;-60
2021/07/05 10:45:06;;;;;;;1.98;0.70;;;;;;;;;;5022818;28;20082;-60
2021/07/05 10:47:44;;;;;;;3.42;0.80;;;;;;;;;;5019571;28;20140;-60
2021/07/05 10:50:31;;;;;;;1.15;1.00;;;;;;;;;;5025086;28;20050;-60
2021/07/05 10:53:00;;;;;;;4.85;0.88;;;;;;;;;;5015054;28;20505;-60
2021/07/05 10:55:38;;;;;;;1.48;0.80;;;;;;;;;;5013467;28;20547;-60
2021/07/05 10:58:15;;;;;;;1.30;0.90;;;;;;;;;;5006924;28;20077;-60
2021/07/05 11:00:46;;;;;;;2.80;0.80;;;;;;;;;;5005360;28;20144;-59
2021/07/05 11:03:30;;;;;;;3.80;0.82;;;;;;;;;;5012681;28;20046;-60
2021/07/05 11:05:59;;;;;;;2.83;1.30;;;;;;;;;;5013454;28;20477;-60
2021/07/05 11:08:36;;;;;;;3.03;0.90;;;;;;;;;;4997547;28;20066;-60
2021/07/05 11:11:23;;;;;;;3.22;0.95;;;;;;;;;;5011684;28;20062;-60
2021/07/05 11:14:07;;;;;;;1.98;0.98;;;;;;;;;;5016568;28;20065;-59
2021/07/05 11:16:51;;;;;;;2.78;0.90;;;;;;;;;;5034229;28;20053;-60
2021/07/05 11:19:32;;;;;;;2.90;1.45;;;;;;;;;;5031078;28;20460;-60
2021/07/05 11:22:03;;;;;;;1.80;0.90;;;;;;;;;;5031182;28;20057;-60
2021/07/05 11:24:43;;;;;;;2.13;1.00;;;;;;;;;;5035744;28;20045;-60
2021/07/05 11:27:32;;;;;;;2.40;1.10;;;;;;;;;;5004352;28;20108;-60
2021/07/05 11:30:17;;;;;;;1.98;1.00;;;;;;;;;;5012373;28;20129;-60
2021/07/05 11:32:46;;;;;;;1.35;1.05;;;;;;;;;;5002613;28;20368;-60
2021/07/05 11:35:33;;;;;;;1.05;0.90;;;;;;;;;;5002305;28;20124;-60
2021/07/05 11:38:04;;;;;;;1.20;0.90;;;;;;;;;;4992148;28;20081;-60
2021/07/05 11:40:39;;;;;;;2.47;1.13;;;;;;;;;;5004119;28;20061;-60
2021/07/05 11:43:08;;;;;;;3.97;1.00;;;;;;;;;;5014719;28;20076;-60
2021/07/05 11:45:42;;;;;;;3.28;1.10;;;;;;;;;;5021453;28;20069;-60
2021/07/05 11:48:11;;;;;;;1.30;1.13;;;;;;;;;;5006377;28;20514;-60
2021/07/05 11:50:40;;;;;;;2.00;1.10;;;;;;;;;;4998076;28;20497;-60
2021/07/05 11:53:15;;;;;;;1.25;1.00;;;;;;;;;;5008025;28;20086;-60
2021/07/05 11:55:43;;;;;;;2.00;1.40;;;;;;;;;;5007322;28;20129;-60
2021/07/05 11:58:11;;;;;;;1.10;0.90;;;;;;;;;;4995563;28;20057;-60
2021/07/05 12:00:40;;;;;;;1.70;0.80;;;;;;;;;;5001837;28;20488;-60
2021/07/05 12:03:10;;;;;;;1.13;0.80;;;;;;;;;;4994839;28;20545;-60
2021/07/05 12:05:40;;;;;;;1.15;0.98;;;;;;;;;;5012462;28;20129;-60
2021/07/05 12:08:11;;;;;;;2.65;1.00;;;;;;;;;;5030482;28;20038;-60
2021/07/05 12:10:40;;;;;;;3.33;0.85;;;;;;;;;;5018923;28;20042;-60
2021/07/05 12:13:13;;;;;;;1.70;0.70;;;;;;;;;;5026890;28;20532;-60
2021/07/05 12:15:42;;;;;;;1.63;0.70;;;;;;;;;;5014930;28;20454;-59
2021/07/05 12:18:16;;;;;;;6.40;0.90;;;;;;;;;;4992686;28;20046;-59
2021/07/05 12:20:44;;;;;;;1.08;0.70;;;;;;;;;;5008270;28;20046;-59
2021/07/05 12:23:15;;;;;;;3.42;0.93;;;;;;;;;;4997218;28;20050;-59
2021/07/05 12:25:43;;;;;;;1.35;0.60;;;;;;;;;;5015639;28;20186;-60
2021/07/05 12:28:13;;;;;;;3.25;0.80;;;;;;;;;;5012228;28;20054;-59
2021/07/05 12:30:46;;;;;;;3.38;0.70;;;;;;;;;;5021964;28;20257;-60
2021/07/05 12:33:14;;;;;;;5.13;0.93;;;;;;;;;;5009054;28;20522;-60
2021/07/05 12:35:43;;;;;;;1.83;0.82;;;;;;;;;;5007347;28;20054;-61
2021/07/05 12:38:12;;;;;;;2.75;0.80;;;;;;;;;;5006411;28;20410;-60
2021/07/05 12:40:43;;;;;;;1.88;0.70;;;;;;;;;;5001155;28;20060;-60
2021/07/05 12:43:16;;;;;;;2.52;0.92;;;;;;;;;;3720139;28;10020753;-60
2021/07/05 12:45:46;;;;;;;1.70;0.90;;;;;;;;;;2070107;28;10002219;-60
2021/07/05 12:48:16;;;;;;;2.70;1.00;;;;;;;;;;4988215;28;20046;-60
2021/07/05 12:50:49;;;;;;;2.13;0.90;;;;;;;;;;5003238;28;20056;-60
2021/07/05 12:53:19;;;;;;;2.53;0.90;;;;;;;;;;4990962;28;20047;-60
2021/07/05 12:55:57;;;;;;;2.47;1.05;;;;;;;;;;4989049;28;20090;-60
2021/07/05 12:58:47;;;;;;;2.35;1.25;;;;;;;;;;4983764;28;20155;-60
2021/07/05 13:01:18;;;;;;;6.80;1.10;;;;;;;;;;4978619;28;20069;-60
2021/07/05 13:03:57;;;;;;;1.50;1.05;;;;;;;;;;4996654;28;20058;-60
2021/07/05 13:06:27;;;;;;;1.33;0.88;;;;;;;;;;4988230;28;20098;-60
2021/07/05 13:08:57;;;;;;;2.55;1.08;;;;;;;;;;5006088;28;20376;-60
2021/07/05 13:11:35;;;;;;;2.88;1.25;;;;;;;;;;5011647;28;20151;-60
2021/07/05 13:14:04;;;;;;;2.45;0.93;;;;;;;;;;5006914;28;20050;-60
2021/07/05 13:16:33;;;;;;;7.18;1.30;;;;;;;;;;5003481;28;20045;-60
2021/07/05 13:19:10;;;;;;;2.85;0.80;;;;;;;;;;5011681;28;20128;-60
2021/07/05 13:21:39;;;;;;;3.35;0.95;;;;;;;;;;5011420;28;20117;-60
2021/07/05 13:24:17;;;;;;;2.63;1.05;;;;;;;;;;5009303;28;20054;-60
2021/07/05 13:26:47;;;;;;;2.22;0.73;;;;;;;;;;5026686;28;20131;-60
2021/07/05 13:29:17;;;;;;;2.78;0.93;;;;;;;;;;5020536;28;20132;-60
2021/07/05 13:31:45;;;;;;;1.50;1.00;;;;;;;;;;4999762;28;20129;-60
2021/07/05 13:34:30;;;;;;;2.92;1.10;;;;;;;;;;5014064;28;20129;-61
2021/07/05 13:36:58;;;;;;;2.75;1.20;;;;;;;;;;5002225;28;20100;-60
2021/07/05 13:39:28;;;;;;;1.60;0.75;;;;;;;;;;5008070;28;20060;-60
2021/07/05 13:42:06;;;;;;;3.10;0.98;;;;;;;;;;5016652;28;20544;-60
2021/07/05 13:44:35;;;;;;;4.57;1.00;;;;;;;;;;5003608;28;20085;-60
2021/07/05 13:47:14;;;;;;;0.73;0.73;;;;;;;;;;5008988;28;20046;-60
2021/07/05 13:49:44;;;;;;;3.50;0.82;;;;;;;;;;5007046;28;20116;-60
2021/07/05 13:52:28;;;;;;;1.00;0.70;;;;;;;;;;5023933;28;20060;-60
2021/07/05 13:54:56;;;;;;;1.20;0.80;;;;;;;;;;5013362;28;20493;-60
2021/07/05 13:57:26;;;;;;;3.13;0.88;;;;;;;;;;4996364;28;20093;-60
2021/07/05 13:59:55;;;;;;;2.45;1.33;;;;;;;;;;5004189;28;20046;-60
2021/07/05 14:02:23;;;;;;;2.50;1.08;;;;;;;;;;5008539;28;20129;-60
2021/07/05 14:04:52;;;;;;;2.22;0.80;;;;;;;;;;5005488;28;20046;-60
2021/07/05 14:07:20;;;;;;;3.00;0.90;;;;;;;;;;5010306;28;20050;-60
2021/07/05 14:09:49;;;;;;;1.92;1.13;;;;;;;;;;5001880;28;21221;-60
2021/07/05 14:12:17;;;;;;;1.73;0.80;;;;;;;;;;4990780;28;20141;-60
2021/07/05 14:14:47;;;;;;;4.25;1.35;;;;;;;;;;5016183;28;20133;-60
2021/07/05 14:17:16;;;;;;;3.97;1.48;;;;;;;;;;5008455;28;20050;-61
2021/07/05 14:19:44;;;;;;;5.60;1.15;;;;;;;;;;5007091;28;20046;-60
2021/07/05 14:22:18;;;;;;;3.00;0.82;;;;;;;;;;4999954;28;20045;-60
2021/07/05 14:24:47;;;;;;;4.43;0.95;;;;;;;;;;5007154;28;20054;-60
2021/07/05 14:27:16;;;;;;;2.53;1.20;;;;;;;;;;5024994;28;20045;-60
2021/07/05 14:29:44;;;;;;;1.27;0.90;;;;;;;;;;5005996;28;20104;-60
2021/07/05 14:32:14;;;;;;;2.20;1.00;;;;;;;;;;5010811;28;20065;-60
2021/07/05 14:34:43;;;;;;;1.20;0.98;;;;;;;;;;5002167;28;20452;-60
2021/07/05 14:37:13;;;;;;;2.08;1.00;;;;;;;;;;5011557;28;20065;-60
2021/07/05 14:39:42;;;;;;;2.80;0.93;;;;;;;;;;5006234;28;20383;-60
2021/07/05 14:42:11;;;;;;;1.75;0.68;;;;;;;;;;5023605;28;20136;-59
2021/07/05 14:44:42;;;;;;;2.33;0.80;;;;;;;;;;5011347;28;20058;-59
2021/07/05 14:47:11;;;;;;;0.85;0.70;;;;;;;;;;5001689;28;20434;-59
2021/07/05 14:49:41;;;;;;;1.55;0.85;;;;;;;;;;5001680;28;20050;-59
2021/07/05 14:52:09;;;;;;;0.98;0.70;;;;;;;;;;5022097;28;20363;-59
2021/07/05 14:54:38;;;;;;;1.95;0.65;;;;;;;;;;5008931;28;20342;-60
2021/07/05 14:57:07;;;;;;;3.47;0.70;;;;;;;;;;5007141;28;20071;-59
2021/07/05 14:59:35;;;;;;;1.58;0.65;;;;;;;;;;5003337;28;20546;-60
2021/07/05 15:02:04;;;;;;;5.38;0.95;;;;;;;;;;5003107;28;20086;-60
2021/07/05 15:04:33;;;;;;;2.15;1.00;;;;;;;;;;5009998;28;20097;-60